Airfield :
LOGIN :

Register | Disclaimer

   EN    FR    IT 

 










Legend :    VFR   Marginal VFR   IFR   Intensive IFR   Very Intensive IFR
Visi :
Ceiling :
>= 8 km
>= 3000ft
5 to 8 km
1000 to 3000 ft
1500m to 5 km
500 to 1000 ft
800 to 1500m
200 to 500 ft
< 800m
< 200 ft
Symbols :   Thunderstorms  Fog  Heavy snow  Heavy precipitations  Wind > 20 kt
SIGMETs :     Misc.  Thunderstorms  Icing  Turbulence  Mountain Waves  Volcanic Ashes







- Airport Elevation : 502 ft
- IATA code : ORK


EICK - Cork

CURRENT METAR :
  • 190300Z 22009KT 9999 FEW022CB 04/03 Q0997 NOSIG

EXPIRED METARs :
  • 190230Z 22010KT 9999 FEW022CB 04/03 Q0996 NOSIG
  • 190200Z 23010KT 9999 FEW022CB 05/03 Q0996 NOSIG
  • 190130Z 22008KT 9999 FEW027CB 04/03 Q0996 NOSIG
  • 190100Z 23009KT 9999 FEW022CB 05/03 Q0997 NOSIG
  • 190030Z 23006KT 9999 FEW028CB 03/02 Q0997 NOSIG

TAF TAF EICK
Valid from the 19 at 00:00 until the 20 at 00:00 UTC


182300Z 1900/1924 22008KT 9999 FEW014 SCT020
TEMPO 1900/1906 -SHRA FEW018CB
BECMG 1906/1909 22015G25KT
TEMPO 1906/1918 5000 SHRA BKN010 BKN018CB
BECMG 1915/1917 24014KT
No reported NOTAMs for that airfield.



MET'MAP, your aeronautical weather chart ! - Copyright ORBIFLY December 2007 - Disclaimer

ORBIFLY MET'MAP TEAM :

Programming & Development : Alexandra Zaïnal
Concept & Development : Baudouin d'Aumeries
Co-Development & Prog : Marc-Olivier Méhu
Technical & hardware support : Manuel Goepfert

Contact : metmap@orbifly.com




SOURCES & CREDITS :

   NOAA